createdAt,value
2017-09-28T00:02:07.690Z,73.80
2017-09-28T00:04:34.456Z,73.80
2017-09-28T00:07:01.233Z,73.70
2017-09-28T00:22:33.172Z,73.50
2017-09-28T00:25:08.288Z,73.30
2017-09-28T00:27:34.527Z,73.20
2017-09-28T00:30:09.098Z,74.90
2017-09-28T00:32:36.103Z,74.80
2017-09-28T00:35:03.632Z,75.10
2017-09-28T00:37:30.350Z,75.10
2017-09-28T00:39:57.171Z,75.10
2017-09-28T00:42:23.411Z,74.80
2017-09-28T00:44:49.618Z,74.10
2017-09-28T00:47:16.098Z,74.70
2017-09-28T00:49:44.275Z,74.70
2017-09-28T00:52:11.502Z,74.70
2017-09-28T00:54:38.274Z,74.70
2017-09-28T00:57:04.501Z,74.60
2017-09-28T00:59:30.729Z,74.70
2017-09-28T01:01:57.943Z,74.80
2017-09-28T01:04:24.160Z,74.50
2017-09-28T01:06:51.731Z,74.40
2017-09-28T01:09:18.367Z,74.50
2017-09-28T01:11:44.712Z,74.30
2017-09-28T01:14:12.790Z,74.10
2017-09-28T01:16:39.098Z,74.00
2017-09-28T01:19:06.468Z,74.20
2017-09-28T01:21:33.235Z,73.90
2017-09-28T01:24:00.336Z,74.00
2017-09-28T01:26:28.517Z,73.90
2017-09-28T01:28:54.789Z,73.70
2017-09-28T01:31:21.887Z,74.30
2017-09-28T01:33:48.345Z,74.10
2017-09-28T01:36:16.465Z,74.20
2017-09-28T01:38:43.466Z,74.00
2017-09-28T01:41:10.264Z,74.00
2017-09-28T01:43:37.533Z,74.10
2017-09-28T01:46:04.783Z,74.10
2017-09-28T01:48:31.720Z,74.30
2017-09-28T01:50:58.455Z,74.00
2017-09-28T01:53:26.164Z,74.10
2017-09-28T01:55:52.692Z,74.00
2017-09-28T01:58:19.960Z,74.00
2017-09-28T02:00:47.822Z,74.00
2017-09-28T02:03:15.456Z,74.00
2017-09-28T02:05:43.246Z,74.00
2017-09-28T02:08:09.468Z,74.60
2017-09-28T02:10:35.711Z,74.00
2017-09-28T02:13:02.497Z,74.20
2017-09-28T02:15:29.264Z,74.30
2017-09-28T02:17:55.519Z,74.60
2017-09-28T02:20:22.241Z,74.50
2017-09-28T02:22:48.539Z,74.20
2017-09-28T02:25:15.911Z,74.70
2017-09-28T02:27:42.962Z,74.40
2017-09-28T02:30:10.718Z,74.80
2017-09-28T02:32:37.486Z,74.80
2017-09-28T02:35:04.470Z,75.20
2017-09-28T02:37:32.490Z,75.50
2017-09-28T02:40:00.165Z,74.80
2017-09-28T02:42:28.231Z,74.60
2017-09-28T02:44:55.997Z,74.60
2017-09-28T02:47:22.212Z,74.30
2017-09-28T02:49:48.929Z,74.20
2017-09-28T02:52:15.167Z,73.80
2017-09-28T02:54:42.473Z,74.10
2017-09-28T02:57:10.486Z,74.50
2017-09-28T02:59:37.166Z,74.50
2017-09-28T03:02:05.143Z,74.70
2017-09-28T03:04:31.933Z,74.70
2017-09-28T03:06:58.672Z,75.00
2017-09-28T03:09:25.545Z,76.50
2017-09-28T03:11:52.789Z,76.10
2017-09-28T03:14:19.503Z,76.00
2017-09-28T03:16:47.191Z,76.20
2017-09-28T03:19:14.173Z,76.80
2017-09-28T03:21:41.132Z,75.90
2017-09-28T03:24:07.513Z,75.80
2017-09-28T03:26:35.016Z,75.80
2017-09-28T03:29:03.155Z,75.30
2017-09-28T03:31:29.947Z,75.30
2017-09-28T03:33:56.388Z,75.20
2017-09-28T03:36:22.587Z,74.90
2017-09-28T03:38:50.701Z,74.90
2017-09-28T03:41:17.917Z,74.80
2017-09-28T03:43:46.205Z,74.70
2017-09-28T03:46:13.859Z,74.60
2017-09-28T03:48:41.621Z,74.60
2017-09-28T03:51:08.352Z,74.30
2017-09-28T03:53:35.885Z,74.60
2017-09-28T03:56:03.451Z,74.60
2017-09-28T03:58:30.486Z,74.50
2017-09-28T04:00:57.230Z,75.00
2017-09-28T04:03:24.995Z,74.90
2017-09-28T04:05:52.489Z,74.80
2017-09-28T04:08:20.258Z,74.70
2017-09-28T04:10:46.706Z,74.60
2017-09-28T04:13:14.476Z,75.60
2017-09-28T04:15:41.797Z,77.00
2017-09-28T04:18:09.139Z,77.40
2017-09-28T04:20:36.617Z,76.40
2017-09-28T04:23:04.311Z,76.30
2017-09-28T04:25:31.740Z,75.80
2017-09-28T04:27:59.444Z,76.00
2017-09-28T04:30:25.705Z,76.00
2017-09-28T04:32:52.680Z,74.90
2017-09-28T04:35:19.445Z,74.80
2017-09-28T04:37:45.869Z,75.30
2017-09-28T04:40:14.101Z,75.20
2017-09-28T04:42:41.266Z,75.20
2017-09-28T04:45:07.769Z,75.20
2017-09-28T04:47:34.578Z,75.20
2017-09-28T04:50:01.746Z,75.10
2017-09-28T04:52:28.216Z,75.00
2017-09-28T04:54:55.383Z,75.40
2017-09-28T04:57:23.403Z,75.30
2017-09-28T04:59:49.900Z,75.40
2017-09-28T05:02:16.495Z,75.90
2017-09-28T05:04:43.465Z,75.80
2017-09-28T05:07:10.479Z,75.80
2017-09-28T05:09:37.985Z,75.30
2017-09-28T05:12:04.329Z,75.20
2017-09-28T05:14:30.729Z,75.10
2017-09-28T05:16:57.792Z,75.60
2017-09-28T05:19:25.158Z,75.50
2017-09-28T05:21:51.365Z,75.50
2017-09-28T05:24:18.214Z,75.70
2017-09-28T05:26:45.431Z,75.60
2017-09-28T05:29:12.493Z,76.10
2017-09-28T05:31:38.751Z,76.00
2017-09-28T05:34:05.272Z,76.40
2017-09-28T05:36:32.441Z,77.70
2017-09-28T05:38:59.152Z,77.60
2017-09-28T05:41:26.862Z,77.30
2017-09-28T05:43:53.827Z,77.30
2017-09-28T05:46:20.420Z,77.10
2017-09-28T05:48:48.387Z,77.40
2017-09-28T05:51:15.606Z,77.40
2017-09-28T05:53:42.167Z,77.60
2017-09-28T05:56:09.222Z,77.40
2017-09-28T05:58:35.496Z,77.40
2017-09-28T06:01:02.552Z,77.50
2017-09-28T06:03:30.085Z,77.20
2017-09-28T06:05:56.285Z,77.20
2017-09-28T06:08:22.502Z,77.10
2017-09-28T06:10:48.785Z,77.10
2017-09-28T06:13:15.822Z,78.50
2017-09-28T06:15:42.058Z,78.50
2017-09-28T06:18:09.681Z,78.30
2017-09-28T06:20:36.988Z,78.20
2017-09-28T06:23:04.498Z,80.00
2017-09-28T06:25:32.175Z,81.00
2017-09-28T06:27:59.001Z,81.00
2017-09-28T06:30:25.259Z,80.40
2017-09-28T06:32:52.270Z,79.30
2017-09-28T06:35:18.893Z,79.20
2017-09-28T06:37:45.100Z,76.70
2017-09-28T06:40:11.978Z,75.70
2017-09-28T06:42:38.482Z,72.50
2017-09-28T06:45:05.709Z,72.20
2017-09-28T06:47:32.871Z,72.10
2017-09-28T06:49:59.931Z,71.00
2017-09-28T06:52:26.979Z,70.80
2017-09-28T06:54:55.082Z,70.70
2017-09-28T06:57:22.106Z,70.70
2017-09-28T06:59:48.890Z,70.70
2017-09-28T07:02:15.632Z,70.80
2017-09-28T07:04:42.819Z,70.60
2017-09-28T07:07:09.990Z,70.30
2017-09-28T07:09:36.329Z,69.90
2017-09-28T07:12:02.830Z,69.10
2017-09-28T07:14:29.658Z,68.90
2017-09-28T07:16:56.832Z,68.50
2017-09-28T07:19:25.560Z,68.60
2017-09-28T07:21:51.763Z,68.60
2017-09-28T07:24:18.515Z,68.20
2017-09-28T07:26:44.745Z,67.60
2017-09-28T07:29:10.996Z,67.70
2017-09-28T07:31:38.330Z,66.80
2017-09-28T07:34:05.082Z,67.60
2017-09-28T07:36:31.301Z,66.50
2017-09-28T07:38:57.522Z,66.20
2017-09-28T07:41:24.533Z,66.70
2017-09-28T07:43:50.733Z,67.00
2017-09-28T07:46:17.817Z,66.70
2017-09-28T07:48:44.016Z,66.70
2017-09-28T07:51:10.978Z,65.60
2017-09-28T07:53:37.307Z,65.60
2017-09-28T07:56:04.065Z,66.00
2017-09-28T07:58:30.836Z,64.80
2017-09-28T08:00:57.050Z,65.70
2017-09-28T08:03:23.713Z,65.90
2017-09-28T08:05:50.949Z,65.00
2017-09-28T08:08:17.675Z,65.00
2017-09-28T08:10:43.919Z,65.00
2017-09-28T08:13:10.711Z,65.70
2017-09-28T08:15:37.505Z,64.80
2017-09-28T08:18:03.958Z,66.00
2017-09-28T08:20:30.944Z,65.10
2017-09-28T08:22:57.198Z,65.10
2017-09-28T08:25:23.435Z,63.30
2017-09-28T08:27:50.220Z,64.00
2017-09-28T08:30:17.783Z,62.50
2017-09-28T08:32:44.577Z,62.50
2017-09-28T08:35:10.877Z,61.30
2017-09-28T08:37:37.663Z,60.90
2017-09-28T08:40:04.428Z,59.70
2017-09-28T08:42:31.920Z,60.30
2017-09-28T08:44:58.132Z,60.30
2017-09-28T08:47:25.028Z,60.00
2017-09-28T08:49:52.250Z,60.00
2017-09-28T08:52:18.486Z,61.90
2017-09-28T08:54:44.718Z,61.00
2017-09-28T08:57:10.952Z,60.00
2017-09-28T08:59:37.693Z,58.10
2017-09-28T09:02:04.494Z,58.30
2017-09-28T09:04:30.727Z,57.60
2017-09-28T09:06:57.503Z,58.30
2017-09-28T09:09:24.311Z,59.40
2017-09-28T09:11:51.107Z,58.70
2017-09-28T09:14:17.755Z,58.10
2017-09-28T09:16:45.684Z,57.30
2017-09-28T09:19:13.009Z,57.20
2017-09-28T09:21:41.201Z,57.80
2017-09-28T09:24:07.441Z,57.80
2017-09-28T09:26:34.185Z,56.50
2017-09-28T09:29:00.771Z,56.40
2017-09-28T09:31:27.519Z,54.70
2017-09-28T09:33:53.765Z,56.30
2017-09-28T09:36:20.749Z,54.60
2017-09-28T09:38:48.374Z,55.50
2017-09-28T09:41:14.603Z,55.30
2017-09-28T09:43:41.299Z,55.60
2017-09-28T09:46:08.934Z,55.50
2017-09-28T09:48:35.310Z,55.50
2017-09-28T09:51:03.384Z,55.90
2017-09-28T09:53:29.606Z,55.80
2017-09-28T09:55:55.842Z,54.70
2017-09-28T09:58:22.127Z,55.20
2017-09-28T10:00:48.325Z,55.30
2017-09-28T10:03:15.076Z,55.60
2017-09-28T10:05:41.296Z,56.30
2017-09-28T10:08:16.480Z,55.90
2017-09-28T10:10:51.734Z,55.70
2017-09-28T10:13:22.378Z,55.70
2017-09-28T10:16:06.840Z,55.80
2017-09-28T10:18:33.113Z,55.50
2017-09-28T10:20:59.581Z,55.80
2017-09-28T10:23:26.711Z,55.90
2017-09-28T10:25:53.689Z,55.80
2017-09-28T10:28:20.428Z,55.80
2017-09-28T10:30:46.647Z,55.60
2017-09-28T10:33:13.111Z,55.40
2017-09-28T10:35:40.800Z,55.70
2017-09-28T10:38:08.018Z,55.70
2017-09-28T10:40:34.742Z,55.40
2017-09-28T10:43:01.999Z,55.40
2017-09-28T10:45:28.233Z,54.80
2017-09-28T10:47:55.234Z,55.20
2017-09-28T10:50:22.218Z,54.90
2017-09-28T10:52:49.476Z,55.00
2017-09-28T10:55:15.932Z,55.40
2017-09-28T10:57:43.069Z,53.00
2017-09-28T11:00:09.268Z,52.90
2017-09-28T11:02:36.043Z,53.30
2017-09-28T11:05:02.250Z,53.50
2017-09-28T11:07:29.651Z,53.80
2017-09-28T11:09:56.009Z,53.60
2017-09-28T11:12:22.966Z,52.40
2017-09-28T11:14:49.730Z,52.40
2017-09-28T11:17:15.940Z,52.00
2017-09-28T11:19:42.138Z,51.70
2017-09-28T11:22:09.107Z,51.30
2017-09-28T11:24:35.849Z,51.20
2017-09-28T11:27:02.844Z,52.20
2017-09-28T11:29:29.068Z,52.00
2017-09-28T11:31:55.828Z,52.10
2017-09-28T11:34:22.061Z,52.10
2017-09-28T11:36:49.543Z,52.90
2017-09-28T11:39:16.506Z,52.90
2017-09-28T11:41:42.884Z,52.60
2017-09-28T11:44:09.716Z,53.30
2017-09-28T11:46:36.372Z,53.00
2017-09-28T11:49:03.379Z,53.20
2017-09-28T11:51:29.590Z,53.20
2017-09-28T11:53:55.892Z,52.70
2017-09-28T11:56:22.112Z,52.30
2017-09-28T11:58:49.435Z,52.40
2017-09-28T12:01:16.290Z,52.30
2017-09-28T12:03:43.031Z,52.80
2017-09-28T12:06:10.237Z,52.10
2017-09-28T12:08:40.381Z,52.50
2017-09-28T12:11:06.748Z,53.00
2017-09-28T12:13:34.359Z,53.60
2017-09-28T12:16:00.664Z,52.60
2017-09-28T12:18:27.092Z,52.60
2017-09-28T12:20:53.955Z,52.50
2017-09-28T12:23:20.752Z,52.10
2017-09-28T12:25:47.758Z,53.20
2017-09-28T12:28:14.251Z,53.20
2017-09-28T12:30:41.865Z,52.60
2017-09-28T12:33:08.836Z,52.60
2017-09-28T12:35:35.852Z,52.60
2017-09-28T12:38:02.602Z,52.60
2017-09-28T12:40:29.821Z,53.10
2017-09-28T12:42:57.179Z,53.00
2017-09-28T12:45:23.870Z,53.20
2017-09-28T12:47:50.952Z,53.10
2017-09-28T12:50:17.171Z,53.10
2017-09-28T12:52:43.381Z,53.00
2017-09-28T12:55:11.048Z,52.80
2017-09-28T12:57:38.543Z,52.90
2017-09-28T13:00:05.032Z,52.80
2017-09-28T13:02:31.344Z,52.20
2017-09-28T13:04:58.724Z,52.00
2017-09-28T13:07:25.492Z,52.10
2017-09-28T13:09:51.684Z,52.70
2017-09-28T13:12:19.245Z,50.80
2017-09-28T13:14:46.704Z,50.60
2017-09-28T13:17:13.720Z,51.10
2017-09-28T13:19:39.944Z,51.10
2017-09-28T13:22:07.048Z,50.90
2017-09-28T13:24:34.585Z,51.20
2017-09-28T13:27:00.963Z,51.20
2017-09-28T13:29:27.965Z,50.80
2017-09-28T13:31:54.199Z,50.80
2017-09-28T13:34:20.932Z,51.50
2017-09-28T13:36:47.620Z,51.30
2017-09-28T13:39:15.167Z,51.30
2017-09-28T13:41:41.941Z,51.30
2017-09-28T13:44:09.427Z,52.10
2017-09-28T13:46:36.405Z,51.90
2017-09-28T13:49:03.663Z,51.30
2017-09-28T13:51:30.051Z,50.70
2017-09-28T13:53:57.698Z,50.60
2017-09-28T13:56:25.214Z,49.70
2017-09-28T13:58:51.434Z,49.70
2017-09-28T14:01:19.172Z,50.60
2017-09-28T14:03:45.915Z,51.10
2017-09-28T14:06:13.064Z,51.10
2017-09-28T14:08:40.580Z,50.00
2017-09-28T14:11:07.345Z,50.10
2017-09-28T14:13:34.324Z,50.00
2017-09-28T14:16:01.883Z,50.00
2017-09-28T14:18:28.468Z,49.50
2017-09-28T14:20:55.615Z,49.30
2017-09-28T14:23:21.828Z,50.00
2017-09-28T14:25:49.082Z,49.90
2017-09-28T14:28:15.580Z,50.40
2017-09-28T14:30:41.825Z,50.80
2017-09-28T14:33:08.537Z,51.00
2017-09-28T14:35:35.916Z,50.20
2017-09-28T14:38:02.767Z,50.20
2017-09-28T14:40:28.975Z,50.20
2017-09-28T14:42:55.185Z,50.30
2017-09-28T14:45:21.942Z,50.80
2017-09-28T14:47:48.149Z,50.60
2017-09-28T14:50:14.538Z,50.70
2017-09-28T14:52:41.526Z,50.50
2017-09-28T14:55:07.847Z,50.50
2017-09-28T14:57:34.806Z,49.40
2017-09-28T15:00:01.974Z,49.40
2017-09-28T15:02:28.740Z,50.20
2017-09-28T15:04:55.269Z,50.70
2017-09-28T15:07:22.233Z,50.80
2017-09-28T15:09:49.399Z,51.40
2017-09-28T15:12:16.912Z,51.50
2017-09-28T15:14:43.680Z,51.40
2017-09-28T15:17:10.480Z,51.80
2017-09-28T15:19:37.151Z,51.30
2017-09-28T15:22:04.233Z,52.00
2017-09-28T15:24:31.701Z,52.60
2017-09-28T15:26:58.975Z,52.10
2017-09-28T15:29:26.410Z,51.90
2017-09-28T15:31:53.201Z,52.70
2017-09-28T15:34:19.939Z,52.80
2017-09-28T15:36:46.630Z,52.90
2017-09-28T15:39:13.086Z,52.80
2017-09-28T15:41:40.229Z,52.60
2017-09-28T15:44:06.477Z,52.90
2017-09-28T15:46:32.945Z,53.00
2017-09-28T15:48:59.797Z,52.80
2017-09-28T15:51:27.249Z,53.80
2017-09-28T15:53:55.212Z,53.40
2017-09-28T15:56:21.441Z,53.30
2017-09-28T15:58:48.229Z,53.60
2017-09-28T16:01:14.747Z,54.20
2017-09-28T16:03:41.481Z,53.90
2017-09-28T16:06:07.752Z,54.20
2017-09-28T16:08:35.219Z,54.70
2017-09-28T16:11:02.789Z,55.50
2017-09-28T16:13:30.302Z,55.50
2017-09-28T16:15:56.951Z,54.60
2017-09-28T16:18:24.760Z,54.90
2017-09-28T16:20:52.032Z,54.80
2017-09-28T16:23:19.621Z,55.80
2017-09-28T16:25:45.845Z,55.80
2017-09-28T16:28:13.090Z,56.00
2017-09-28T16:30:40.674Z,56.30
2017-09-28T16:33:07.492Z,56.30
2017-09-28T16:35:33.715Z,56.80
2017-09-28T16:38:00.950Z,55.90
2017-09-28T16:40:28.500Z,57.70
2017-09-28T16:42:56.934Z,58.10
2017-09-28T16:45:24.688Z,60.10
2017-09-28T16:47:51.158Z,60.10
2017-09-28T16:50:19.335Z,61.70
2017-09-28T16:52:46.938Z,62.30
2017-09-28T16:55:13.248Z,62.20
2017-09-28T16:57:40.201Z,62.90
2017-09-28T17:00:07.118Z,62.90
2017-09-28T17:02:34.173Z,62.40
2017-09-28T17:05:02.351Z,63.70
2017-09-28T17:07:29.769Z,63.60
2017-09-28T17:09:56.488Z,63.40
2017-09-28T17:12:23.296Z,64.30
2017-09-28T17:14:50.064Z,65.30
2017-09-28T17:17:16.880Z,64.70
2017-09-28T17:19:43.423Z,64.80
2017-09-28T17:22:10.516Z,64.60
2017-09-28T17:24:37.756Z,64.70
2017-09-28T17:27:03.983Z,64.60
2017-09-28T17:29:31.043Z,63.60
2017-09-28T17:31:57.835Z,63.20
2017-09-28T17:34:24.112Z,63.40
2017-09-28T17:36:50.529Z,64.70
2017-09-28T17:39:17.561Z,66.10
2017-09-28T17:41:43.864Z,66.00
2017-09-28T17:44:11.446Z,66.20
2017-09-28T17:46:37.831Z,66.20
2017-09-28T17:49:04.037Z,65.90
2017-09-28T17:51:30.517Z,65.70
2017-09-28T17:53:57.488Z,65.90
2017-09-28T17:56:23.847Z,66.00
2017-09-28T17:58:51.453Z,65.10
2017-09-28T18:01:18.971Z,65.50
2017-09-28T18:03:45.365Z,65.40
2017-09-28T18:06:12.904Z,65.60
2017-09-28T18:08:40.448Z,64.50
2017-09-28T18:11:07.437Z,65.70
2017-09-28T18:13:36.668Z,65.90
2017-09-28T18:16:03.224Z,65.90
2017-09-28T18:18:30.590Z,65.80
2017-09-28T18:20:59.216Z,66.70
2017-09-28T18:23:25.520Z,66.50
2017-09-28T18:25:52.070Z,66.80
2017-09-28T18:28:19.187Z,67.70
2017-09-28T18:30:46.079Z,67.50
2017-09-28T18:33:12.303Z,66.40
2017-09-28T18:35:39.066Z,65.70
2017-09-28T18:38:05.341Z,65.60
2017-09-28T18:40:32.124Z,66.40
2017-09-28T18:42:59.348Z,66.30
2017-09-28T18:45:26.082Z,67.20
2017-09-28T18:47:53.204Z,67.60
2017-09-28T18:50:21.170Z,65.90
2017-09-28T18:52:48.711Z,65.90
2017-09-28T18:55:15.941Z,65.80
2017-09-28T18:57:42.936Z,68.40
2017-09-28T19:00:10.539Z,66.90
2017-09-28T19:02:36.864Z,66.80
2017-09-28T19:05:04.854Z,68.10
2017-09-28T19:07:32.179Z,67.50
2017-09-28T19:09:58.423Z,66.90
2017-09-28T19:12:25.621Z,67.70
2017-09-28T19:14:53.556Z,66.80
2017-09-28T19:17:19.797Z,66.80
2017-09-28T19:19:46.017Z,66.50
2017-09-28T19:22:12.768Z,65.90
2017-09-28T19:24:39.538Z,67.40
2017-09-28T19:27:06.280Z,68.00
2017-09-28T19:29:34.555Z,69.20
2017-09-28T19:32:01.787Z,69.10
2017-09-28T19:34:29.080Z,67.00
2017-09-28T19:36:56.301Z,66.90
2017-09-28T19:39:23.868Z,68.30
2017-09-28T19:41:51.384Z,68.30
2017-09-28T19:44:18.611Z,67.50
2017-09-28T19:46:45.469Z,67.00
2017-09-28T19:49:11.731Z,67.70
2017-09-28T19:51:39.305Z,68.70
2017-09-28T19:54:06.514Z,68.50
2017-09-28T19:56:34.096Z,69.20
2017-09-28T19:59:01.112Z,68.70
2017-09-28T20:01:28.259Z,68.50
2017-09-28T20:03:55.210Z,68.30
2017-09-28T20:06:22.814Z,67.60
2017-09-28T20:08:50.237Z,69.60
2017-09-28T20:11:17.380Z,69.60
2017-09-28T20:13:45.711Z,68.70
2017-09-28T20:16:12.499Z,68.70
2017-09-28T20:18:40.674Z,70.30
2017-09-28T20:21:08.763Z,70.40
2017-09-28T20:23:35.013Z,70.30
2017-09-28T20:26:01.873Z,69.00
2017-09-28T20:28:29.343Z,68.60
2017-09-28T20:30:57.397Z,69.30
2017-09-28T20:33:23.693Z,69.20
2017-09-28T20:35:50.670Z,68.90
2017-09-28T20:38:17.040Z,68.80
2017-09-28T20:40:44.034Z,68.20
2017-09-28T20:43:11.569Z,67.70
2017-09-28T20:45:37.896Z,67.70
2017-09-28T20:48:04.236Z,67.60
2017-09-28T20:50:31.589Z,69.60
2017-09-28T20:52:58.808Z,68.60
2017-09-28T20:55:26.991Z,68.70
2017-09-28T20:58:08.180Z,68.70
2017-09-28T21:00:35.365Z,67.80
2017-09-28T21:03:01.851Z,68.50
2017-09-28T21:05:29.350Z,69.50
2017-09-28T21:07:57.333Z,69.80
2017-09-28T21:10:23.556Z,69.80
2017-09-28T21:12:50.547Z,69.50
2017-09-28T21:15:16.749Z,68.90
2017-09-28T21:17:42.972Z,69.60
2017-09-28T21:20:09.415Z,69.60
2017-09-28T21:22:36.715Z,70.70
2017-09-28T21:25:02.902Z,71.40
2017-09-28T21:27:29.369Z,72.10
2017-09-28T21:29:56.199Z,73.30
2017-09-28T21:32:22.437Z,71.40
2017-09-28T21:34:50.001Z,72.00
2017-09-28T21:37:16.641Z,72.80
2017-09-28T21:39:43.617Z,71.50
2017-09-28T21:42:10.347Z,71.50
2017-09-28T21:44:37.808Z,70.60
2017-09-28T21:47:04.621Z,70.90
2017-09-28T21:49:31.889Z,71.60
2017-09-28T21:51:58.878Z,70.50
2017-09-28T21:54:26.342Z,70.50
2017-09-28T21:56:53.360Z,71.00
2017-09-28T21:59:21.410Z,71.00
2017-09-28T22:01:47.642Z,70.60
2017-09-28T22:04:14.543Z,70.10
2017-09-28T22:06:41.177Z,70.70
2017-09-28T22:09:08.153Z,71.80
2017-09-28T22:11:35.640Z,73.40
2017-09-28T22:14:01.855Z,73.40
2017-09-28T22:16:28.753Z,72.80
2017-09-28T22:18:54.973Z,71.90
2017-09-28T22:21:21.183Z,72.20
2017-09-28T22:23:49.096Z,72.70
2017-09-28T22:26:16.128Z,72.00
2017-09-28T22:28:42.628Z,72.60
2017-09-28T22:31:10.136Z,73.10
2017-09-28T22:33:38.076Z,73.60
2017-09-28T22:36:05.022Z,73.50
2017-09-28T22:38:31.227Z,73.60
2017-09-28T22:40:58.403Z,73.40
2017-09-28T22:43:25.169Z,74.50
2017-09-28T22:45:53.663Z,76.60
2017-09-28T22:48:21.512Z,76.70
2017-09-28T22:50:48.496Z,75.10
2017-09-28T22:53:14.721Z,74.90
2017-09-28T22:55:40.934Z,75.60
2017-09-28T22:58:08.523Z,73.90
2017-09-28T23:00:42.927Z,73.90
2017-09-28T23:03:11.104Z,74.40
2017-09-28T23:05:37.365Z,74.30
2017-09-28T23:17:55.086Z,77.30
2017-09-28T23:20:21.598Z,77.30
2017-09-28T23:22:48.011Z,76.20
2017-09-28T23:25:14.216Z,76.30
2017-09-28T23:27:41.861Z,76.50
2017-09-28T23:30:08.834Z,75.40
2017-09-28T23:32:35.913Z,75.40
2017-09-28T23:35:03.858Z,76.30
2017-09-28T23:37:30.167Z,76.30
2017-09-28T23:39:56.618Z,76.40
2017-09-28T23:42:23.789Z,77.10
2017-09-28T23:44:51.327Z,77.30
2017-09-28T23:47:17.545Z,77.30
2017-09-28T23:49:43.765Z,77.00
2017-09-28T23:52:10.449Z,76.60
2017-09-28T23:54:37.996Z,75.80
2017-09-28T23:57:04.453Z,75.70
2017-09-28T23:59:31.255Z,74.80
